createdAt,value
2022-08-30T00:10:20.114Z,963.67
2022-08-30T00:25:22.070Z,963.6
2022-08-30T00:40:27.453Z,963.58
2022-08-30T00:55:29.676Z,963.46
2022-08-30T01:10:31.579Z,963.35
2022-08-30T01:25:33.489Z,963.22
2022-08-30T01:40:35.439Z,963.31
2022-08-30T01:55:37.379Z,963.47
2022-08-30T02:10:39.257Z,963.51
2022-08-30T02:25:41.139Z,963.63
2022-08-30T02:40:43.080Z,963.85
2022-08-30T02:55:45.013Z,964.11
2022-08-30T03:10:46.903Z,964.41
2022-08-30T03:25:52.975Z,964.64
2022-08-30T03:40:54.883Z,964.91
2022-08-30T03:55:57.344Z,964.96
2022-08-30T04:10:59.321Z,965.11
2022-08-30T04:26:01.242Z,965.39
2022-08-30T04:41:03.151Z,965.59
2022-08-30T04:56:05.050Z,965.72
2022-08-30T05:11:06.928Z,965.81
2022-08-30T05:26:08.860Z,966
2022-08-30T05:41:11.146Z,966.17
2022-08-30T05:56:13.097Z,966.34
2022-08-30T06:11:14.988Z,966.48
2022-08-30T06:26:16.915Z,966.54
2022-08-30T06:41:18.804Z,966.66
2022-08-30T06:56:22.129Z,966.72
2022-08-30T07:11:25.609Z,966.93
2022-08-30T07:26:29.897Z,966.98
2022-08-30T07:41:31.907Z,967.08
2022-08-30T07:56:33.820Z,967.35
2022-08-30T08:11:35.709Z,967.38
2022-08-30T08:26:37.626Z,967.42
2022-08-30T08:41:39.556Z,967.39
2022-08-30T08:56:41.448Z,967.46
2022-08-30T09:11:44.364Z,967.53
2022-08-30T09:26:46.422Z,967.59
2022-08-30T09:41:48.389Z,967.74
2022-08-30T09:56:50.361Z,967.84
2022-08-30T10:11:52.250Z,967.9
2022-08-30T10:26:54.177Z,967.88
2022-08-30T10:41:56.125Z,967.98
2022-08-30T10:56:59.063Z,968.12
2022-08-30T11:12:00.935Z,968.19
2022-08-30T11:27:03.759Z,968.19
2022-08-30T11:42:07.313Z,968.32
2022-08-30T11:57:09.997Z,968.39
2022-08-30T12:12:11.860Z,968.42
2022-08-30T12:27:13.737Z,968.58
2022-08-30T12:42:17.799Z,968.68
2022-08-30T12:57:35.000Z,968.74
2022-08-30T13:12:37.386Z,968.86
2022-08-30T13:27:39.267Z,969.04
2022-08-30T13:42:41.737Z,969.14
2022-08-30T13:57:56.303Z,969.25
2022-08-30T14:13:07.857Z,969.43
2022-08-30T14:28:10.779Z,969.55
2022-08-30T14:43:12.676Z,969.6
2022-08-30T14:58:14.593Z,969.59
2022-08-30T15:13:16.484Z,969.61
2022-08-30T15:28:18.547Z,969.58
2022-08-30T15:43:20.596Z,969.46
2022-08-30T15:58:22.485Z,969.4
2022-08-30T16:13:24.372Z,969.26
2022-08-30T16:28:26.265Z,969.19
2022-08-30T16:43:28.163Z,969.07
2022-08-30T16:58:30.080Z,968.93
2022-08-30T17:13:33.167Z,968.84
2022-08-30T17:28:35.157Z,968.75
2022-08-30T17:43:37.069Z,968.51
2022-08-30T17:58:38.996Z,968.36
2022-08-30T18:13:40.880Z,968.1
2022-08-30T18:28:42.745Z,967.87
2022-08-30T18:43:46.093Z,967.56
2022-08-30T18:58:47.977Z,967.37
2022-08-30T19:13:49.901Z,967.07
2022-08-30T19:28:53.420Z,966.89
2022-08-30T19:43:55.326Z,966.6
2022-08-30T19:58:57.224Z,966.4
2022-08-30T20:13:59.122Z,966.18
2022-08-30T20:29:01.056Z,965.87
2022-08-30T20:44:02.906Z,965.65
2022-08-30T20:59:04.812Z,965.42
2022-08-30T21:14:07.235Z,965.26
2022-08-30T21:29:09.136Z,964.99
2022-08-30T21:44:11.067Z,964.72
2022-08-30T21:59:13.031Z,964.47
2022-08-30T22:14:16.466Z,964.25
2022-08-30T22:29:18.725Z,964
2022-08-30T22:44:20.613Z,963.78
2022-08-30T22:59:22.527Z,963.56
2022-08-30T23:14:29.124Z,963.33
2022-08-30T23:29:31.034Z,963.26
2022-08-30T23:44:32.944Z,963.18
2022-08-30T23:59:34.818Z,963.06
